createdAt,value
2023-04-20T00:00:48.182Z,11.70
2023-04-20T00:06:52.175Z,11.60
2023-04-20T00:12:54.693Z,11.50
2023-04-20T00:18:57.165Z,11.40
2023-04-20T00:24:59.572Z,11.30
2023-04-20T00:31:02.041Z,11.10
2023-04-20T00:37:04.575Z,10.90
2023-04-20T00:43:14.026Z,10.90
2023-04-20T00:49:17.009Z,10.80
2023-04-20T00:55:20.916Z,10.80
2023-04-20T01:01:23.956Z,10.60
2023-04-20T01:07:26.283Z,10.50
2023-04-20T01:13:28.713Z,10.40
2023-04-20T01:19:31.151Z,10.40
2023-04-20T01:25:33.569Z,10.40
2023-04-20T01:31:36.107Z,10.40
2023-04-20T01:37:39.806Z,10.40
2023-04-20T01:43:42.167Z,10.50
2023-04-20T01:49:44.579Z,10.60
2023-04-20T01:55:46.901Z,10.50
2023-04-20T02:01:49.271Z,10.50
2023-04-20T02:07:51.846Z,10.50
2023-04-20T02:13:54.262Z,10.50
2023-04-20T02:19:56.531Z,10.40
2023-04-20T02:25:58.791Z,10.30
2023-04-20T02:32:01.176Z,10.30
2023-04-20T02:38:03.686Z,10.30
2023-04-20T02:44:06.222Z,10.30
2023-04-20T02:50:11.939Z,10.40
2023-04-20T02:56:32.214Z,10.40
2023-04-20T03:02:39.953Z,10.40
2023-04-20T03:08:43.187Z,10.40
2023-04-20T03:15:08.633Z,10.40
2023-04-20T03:21:33.940Z,10.40
2023-04-20T03:27:36.556Z,10.50
2023-04-20T03:33:46.317Z,10.50
2023-04-20T03:39:48.606Z,10.60
2023-04-20T03:45:51.110Z,10.70
2023-04-20T03:51:55.076Z,10.80
2023-04-20T03:57:58.322Z,10.80
2023-04-20T04:04:03.790Z,10.90
2023-04-20T04:10:08.457Z,11.00
2023-04-20T04:16:11.073Z,11.00
2023-04-20T04:22:13.375Z,11.10
2023-04-20T04:28:28.595Z,11.10
2023-04-20T04:34:41.009Z,11.30
2023-04-20T04:40:46.162Z,11.40
2023-04-20T04:46:49.021Z,11.60
2023-04-20T04:52:54.672Z,11.70
2023-04-20T04:58:57.041Z,11.90
2023-04-20T05:04:59.587Z,12.10
2023-04-20T05:11:01.995Z,12.40
2023-04-20T05:17:05.164Z,12.80
2023-04-20T05:23:07.467Z,12.90
2023-04-20T05:29:10.200Z,13.20
2023-04-20T05:35:12.799Z,13.40
2023-04-20T05:41:15.113Z,13.30
2023-04-20T05:47:17.313Z,13.20
2023-04-20T05:53:19.770Z,13.20
2023-04-20T05:59:22.412Z,13.20
2023-04-20T06:05:24.734Z,13.40
2023-04-20T06:11:26.984Z,13.50
2023-04-20T06:17:29.340Z,13.60
2023-04-20T06:23:31.580Z,13.70
2023-04-20T06:29:33.861Z,13.70
2023-04-20T06:35:36.373Z,13.80
2023-04-20T06:41:41.565Z,13.80
2023-04-20T06:47:43.728Z,13.80
2023-04-20T06:53:45.866Z,13.60
2023-04-20T06:59:48.120Z,13.70
2023-04-20T07:05:50.409Z,13.60
2023-04-20T07:11:52.566Z,13.60
2023-04-20T07:17:54.855Z,13.60
2023-04-20T07:23:59.428Z,13.90
2023-04-20T07:30:02.302Z,14.20
2023-04-20T07:36:05.160Z,14.30
2023-04-20T07:42:07.458Z,14.50
2023-04-20T07:48:10.141Z,14.40
2023-04-20T07:54:12.293Z,14.30
2023-04-20T08:00:15.629Z,14.20
2023-04-20T08:06:21.083Z,14.30
2023-04-20T08:12:24.172Z,14.40
2023-04-20T08:18:26.757Z,14.70
2023-04-20T08:24:29.743Z,15.30
2023-04-20T08:30:32.144Z,17.00
2023-04-20T08:36:34.651Z,17.10
2023-04-20T08:42:37.282Z,16.50
2023-04-20T08:48:42.153Z,16.30
2023-04-20T09:00:49.946Z,15.40
2023-04-20T09:06:56.795Z,15.30
2023-04-20T09:12:59.218Z,15.20
2023-04-20T09:19:01.919Z,15.00
2023-04-20T09:25:13.994Z,15.10
2023-04-20T09:31:23.225Z,15.00
2023-04-20T09:37:26.088Z,15.10
2023-04-20T09:43:29.037Z,15.10
2023-04-20T09:49:31.888Z,15.20
2023-04-20T09:55:34.539Z,15.20
2023-04-20T10:01:38.462Z,15.40
2023-04-20T10:07:40.960Z,15.60
2023-04-20T10:13:43.333Z,15.90
2023-04-20T10:19:46.507Z,15.70
2023-04-20T10:26:01.306Z,15.90
2023-04-20T10:32:03.594Z,16.10
2023-04-20T10:38:06.121Z,16.40
2023-04-20T10:44:09.579Z,16.60
2023-04-20T10:50:16.162Z,16.90
2023-04-20T10:56:18.418Z,16.90
2023-04-20T11:02:21.509Z,17.10
2023-04-20T11:08:24.076Z,17.90
2023-04-20T11:14:26.565Z,18.00
2023-04-20T11:20:28.701Z,18.40
2023-04-20T11:26:43.904Z,18.40
2023-04-20T11:32:55.052Z,18.60
2023-04-20T11:39:08.749Z,18.40
2023-04-20T11:45:12.137Z,18.20
2023-04-20T11:51:15.084Z,18.40
2023-04-20T11:57:17.574Z,18.50
2023-04-20T12:03:20.024Z,18.70
2023-04-20T12:09:22.640Z,19.00
2023-04-20T12:15:24.930Z,19.20
2023-04-20T12:21:27.941Z,19.90
2023-04-20T12:27:30.515Z,20.30
2023-04-20T12:33:32.984Z,20.50
2023-04-20T12:39:35.282Z,20.10
2023-04-20T12:45:37.668Z,19.70
2023-04-20T12:51:39.875Z,19.70
2023-04-20T12:57:42.153Z,19.80
2023-04-20T13:03:44.619Z,20.30
2023-04-20T13:09:47.299Z,27.60
2023-04-20T13:15:49.596Z,25.20
2023-04-20T13:21:51.873Z,25.40
2023-04-20T13:27:55.358Z,24.70
2023-04-20T13:33:57.709Z,22.00
2023-04-20T13:40:00.700Z,21.10
2023-04-20T13:46:02.876Z,20.60
2023-04-20T13:52:05.389Z,19.90
2023-04-20T13:58:07.924Z,19.60
2023-04-20T14:04:10.521Z,19.90
2023-04-20T14:10:13.101Z,19.80
2023-04-20T14:16:15.435Z,20.00
2023-04-20T14:22:17.846Z,20.00
2023-04-20T14:28:20.257Z,20.10
2023-04-20T14:34:22.964Z,20.10
2023-04-20T14:40:25.418Z,19.80
2023-04-20T14:46:28.604Z,18.80
2023-04-20T14:52:31.226Z,17.80
2023-04-20T14:58:33.772Z,16.90
2023-04-20T15:04:36.583Z,16.60
2023-04-20T15:10:39.662Z,16.20
2023-04-20T15:16:41.986Z,16.00
2023-04-20T15:22:44.406Z,15.90
2023-04-20T15:28:46.719Z,15.70
2023-04-20T15:34:49.164Z,15.50
2023-04-20T15:40:54.495Z,15.50
2023-04-20T15:46:58.631Z,15.10
2023-04-20T15:53:01.445Z,14.90
2023-04-20T15:59:03.729Z,14.70
2023-04-20T16:05:10.045Z,14.50
2023-04-20T16:11:12.608Z,14.20
2023-04-20T16:17:14.932Z,14.10
2023-04-20T16:23:17.332Z,14.10
2023-04-20T16:29:19.597Z,14.00
2023-04-20T16:35:22.462Z,13.90
2023-04-20T16:41:26.228Z,13.70
2023-04-20T16:47:28.867Z,13.60
2023-04-20T16:53:31.654Z,13.50
2023-04-20T16:59:34.093Z,13.50
2023-04-20T17:05:41.699Z,13.40
2023-04-20T17:11:44.795Z,13.40
2023-04-20T17:17:47.257Z,13.30
2023-04-20T17:23:50.318Z,13.30
2023-04-20T17:29:52.819Z,13.20
2023-04-20T17:35:57.485Z,13.20
2023-04-20T17:41:59.977Z,13.20
2023-04-20T17:48:02.287Z,13.20
2023-04-20T17:54:05.477Z,13.10
2023-04-20T18:00:09.665Z,12.90
2023-04-20T18:06:15.178Z,12.90
2023-04-20T18:12:18.191Z,12.90
2023-04-20T18:18:22.185Z,12.70
2023-04-20T18:24:24.746Z,12.60
2023-04-20T18:30:27.094Z,12.60
2023-04-20T18:36:30.327Z,12.50
2023-04-20T18:42:32.804Z,12.50
2023-04-20T18:48:35.308Z,12.50
2023-04-20T18:54:38.844Z,12.60
2023-04-20T19:00:41.410Z,12.60
2023-04-20T19:06:47.328Z,12.50
2023-04-20T19:12:49.554Z,12.50
2023-04-20T19:18:52.501Z,12.50
2023-04-20T19:24:57.125Z,12.40
2023-04-20T19:31:00.278Z,12.40
2023-04-20T19:37:02.826Z,12.30
2023-04-20T19:43:05.144Z,12.30
2023-04-20T19:49:07.713Z,12.20
2023-04-20T19:55:11.111Z,12.30
2023-04-20T20:01:13.621Z,12.20
2023-04-20T20:07:17.635Z,12.20
2023-04-20T20:13:20.020Z,12.10
2023-04-20T20:19:22.500Z,12.10
2023-04-20T20:25:25.279Z,12.10
2023-04-20T20:31:27.610Z,12.10
2023-04-20T20:37:35.119Z,12.00
2023-04-20T20:43:37.959Z,12.00
2023-04-20T20:49:40.134Z,12.00
2023-04-20T20:55:42.404Z,12.00
2023-04-20T21:01:45.178Z,11.90
2023-04-20T21:07:47.755Z,11.80
2023-04-20T21:13:50.214Z,11.70
2023-04-20T21:19:52.749Z,11.70
2023-04-20T21:25:55.072Z,11.70
2023-04-20T21:31:57.429Z,11.60
2023-04-20T21:37:59.911Z,11.70
2023-04-20T21:44:03.048Z,11.70
2023-04-20T21:50:05.618Z,11.60
2023-04-20T21:56:07.909Z,11.70
2023-04-20T22:02:10.441Z,11.60
2023-04-20T22:08:14.935Z,11.60
2023-04-20T22:14:17.603Z,11.60
2023-04-20T22:20:20.135Z,11.50
2023-04-20T22:26:22.512Z,11.50
2023-04-20T22:32:25.860Z,11.50
2023-04-20T22:38:28.293Z,11.60
2023-04-20T22:44:33.837Z,11.60
2023-04-20T22:50:36.123Z,11.70
2023-04-20T22:56:38.624Z,11.60
2023-04-20T23:02:41.737Z,11.60
2023-04-20T23:08:44.092Z,11.60
2023-04-20T23:14:46.944Z,11.60
2023-04-20T23:20:49.427Z,11.60
2023-04-20T23:26:51.938Z,11.60
2023-04-20T23:32:54.267Z,11.60
2023-04-20T23:38:56.747Z,11.60
2023-04-20T23:44:59.216Z,11.60
2023-04-20T23:51:02.217Z,11.60
2023-04-20T23:57:04.735Z,11.50
